Time;durP1;ratioP1;P1;durP2;ratioP2;P2;SDS_P1;SDS_P2;PMS_P1;PMS_P2;Temp;Humidity;BMP_temperature;BMP_pressure;BME280_temperature;BME280_humidity;BME280_pressure;Samples;Min_cycle;Max_cycle;Signal;HPM_P1;HPM_P2
2023/07/10 00:00:36;;;;;;;3.40;3.10;;;26.40;53.90;;;;;;874286;161;27424;-76
2023/07/10 00:03:03;;;;;;;3.00;2.80;;;26.40;54.20;;;;;;874861;160;27351;-75
2023/07/10 00:05:30;;;;;;;2.95;2.75;;;26.40;54.30;;;;;;873724;163;27448;-75
2023/07/10 00:07:56;;;;;;;3.02;2.75;;;26.30;54.40;;;;;;873308;160;27955;-75
2023/07/10 00:10:23;;;;;;;2.72;2.52;;;26.40;54.40;;;;;;873900;160;27420;-75
2023/07/10 00:12:49;;;;;;;2.92;2.72;;;26.30;54.50;;;;;;873490;161;27393;-76
2023/07/10 00:15:19;;;;;;;4.58;3.00;;;26.30;54.70;;;;;;874039;162;27830;-75
2023/07/10 00:17:45;;;;;;;3.20;2.92;;;26.30;54.80;;;;;;874211;160;27582;-75
2023/07/10 00:20:14;;;;;;;3.60;3.30;;;26.20;54.90;;;;;;873229;163;27421;-75
2023/07/10 00:22:41;;;;;;;4.25;2.80;;;26.30;55.20;;;;;;874453;161;27595;-75
2023/07/10 00:25:08;;;;;;;2.60;2.47;;;26.20;55.10;;;;;;873458;162;27904;-75
2023/07/10 00:27:34;;;;;;;3.20;2.90;;;26.20;55.10;;;;;;873236;161;27520;-75
2023/07/10 00:30:01;;;;;;;3.17;2.87;;;26.10;55.10;;;;;;873825;162;27373;-77
2023/07/10 00:32:27;;;;;;;3.10;2.80;;;26.10;55.30;;;;;;873878;161;27357;-77
2023/07/10 00:34:54;;;;;;;3.05;2.72;;;26.00;55.40;;;;;;873584;161;27487;-77
2023/07/10 00:37:21;;;;;;;3.27;2.98;;;26.00;55.60;;;;;;873468;162;27856;-77
2023/07/10 00:39:47;;;;;;;4.85;3.92;;;25.90;55.70;;;;;;873140;161;27497;-78
2023/07/10 00:42:19;;;;;;;6.50;3.20;;;25.90;56.30;;;;;;873555;162;27413;-78
2023/07/10 00:44:47;;;;;;;4.12;3.30;;;25.90;56.70;;;;;;872601;162;27529;-79
2023/07/10 00:47:15;;;;;;;4.58;3.20;;;25.80;57.00;;;;;;873907;163;27990;-78
2023/07/10 00:49:42;;;;;;;3.87;2.98;;;25.80;57.50;;;;;;873191;161;27454;-78
2023/07/10 00:52:24;;;;;;;4.78;3.30;;;25.70;58.10;;;;;;873403;162;27432;-78
2023/07/10 00:54:50;;;;;;;5.78;3.35;;;25.60;58.50;;;;;;873129;161;27429;-78
2023/07/10 00:57:20;;;;;;;5.97;3.47;;;25.60;58.60;;;;;;873668;162;27440;-77
2023/07/10 00:59:46;;;;;;;6.12;3.50;;;25.50;58.90;;;;;;873413;163;27550;-78
2023/07/10 01:02:13;;;;;;;5.25;3.25;;;25.40;59.20;;;;;;873912;163;27408;-78
2023/07/10 01:04:42;;;;;;;4.95;3.50;;;25.30;59.40;;;;;;873554;161;27375;-77
2023/07/10 01:07:09;;;;;;;4.95;3.70;;;25.20;59.70;;;;;;873594;163;27475;-78
2023/07/10 01:09:35;;;;;;;4.33;3.70;;;25.10;60.00;;;;;;873092;161;28002;-77
2023/07/10 01:12:03;;;;;;;6.20;4.03;;;25.00;60.40;;;;;;873972;162;27436;-77
2023/07/10 01:14:34;;;;;;;5.58;3.42;;;24.90;60.90;;;;;;873481;161;27413;-77
2023/07/10 01:16:55;;;;;;;4.53;3.55;;;24.70;61.30;;;;;;873640;162;27462;-77
2023/07/10 01:19:22;;;;;;;3.80;3.25;;;24.70;61.80;;;;;;873697;160;27486;-77
2023/07/10 01:21:50;;;;;;;5.42;3.87;;;24.50;62.20;;;;;;874103;162;27490;-77
2023/07/10 01:24:15;;;;;;;4.10;3.62;;;24.50;62.50;;;;;;874311;160;27501;-77
2023/07/10 01:26:41;;;;;;;6.17;3.72;;;24.30;62.80;;;;;;874907;162;27537;-78
2023/07/10 01:29:29;;;;;;;5.17;3.47;;;24.30;63.40;;;;;;874715;162;27443;-77
2023/07/10 01:31:55;;;;;;;6.87;3.60;;;24.20;63.80;;;;;;874159;163;27431;-77
2023/07/10 01:34:22;;;;;;;3.95;3.40;;;24.10;63.80;;;;;;874541;161;27431;-77
2023/07/10 01:36:49;;;;;;;6.03;3.87;;;24.00;64.20;;;;;;874329;162;27575;-78
2023/07/10 01:39:15;;;;;;;3.92;3.27;;;24.00;64.60;;;;;;874428;160;27558;-77
2023/07/10 01:41:42;;;;;;;5.53;3.52;;;23.90;64.80;;;;;;874477;161;27440;-78
2023/07/10 01:44:29;;;;;;;5.58;3.70;;;23.80;65.10;;;;;;873898;160;27412;-78
2023/07/10 01:46:56;;;;;;;4.53;3.58;;;23.80;65.50;;;;;;872250;160;27394;-77
2023/07/10 01:49:25;;;;;;;4.97;3.50;;;23.70;65.70;;;;;;874700;162;27537;-78
2023/07/10 01:51:52;;;;;;;4.83;3.65;;;23.70;66.20;;;;;;874172;162;27598;-77
2023/07/10 01:54:18;;;;;;;6.03;3.58;;;23.60;66.60;;;;;;873920;160;27505;-77
2023/07/10 01:56:45;;;;;;;4.12;3.80;;;23.60;66.90;;;;;;874628;162;27443;-77
2023/07/10 01:59:12;;;;;;;4.20;3.70;;;23.50;67.30;;;;;;877562;161;27512;-77
2023/07/10 02:01:38;;;;;;;3.75;3.35;;;23.50;67.60;;;;;;874270;162;27471;-77
2023/07/10 02:04:05;;;;;;;4.75;3.77;;;23.50;67.80;;;;;;874717;160;27412;-77
2023/07/10 02:06:31;;;;;;;5.22;4.22;;;23.40;68.10;;;;;;874285;163;27431;-77
2023/07/10 02:08:58;;;;;;;6.95;4.28;;;23.40;68.90;;;;;;874683;162;27519;-77
2023/07/10 02:11:25;;;;;;;4.87;3.77;;;23.30;68.60;;;;;;874068;162;27568;-78
2023/07/10 02:13:51;;;;;;;7.62;3.83;;;23.30;68.90;;;;;;874256;162;27435;-78
2023/07/10 02:16:20;;;;;;;3.92;3.62;;;23.20;69.10;;;;;;874856;162;27510;-73
2023/07/10 02:18:44;;;;;;;5.62;3.50;;;23.20;69.20;;;;;;873979;161;27337;-77
2023/07/10 02:21:11;;;;;;;4.28;3.85;;;23.20;69.40;;;;;;873674;161;27514;-77
2023/07/10 02:23:38;;;;;;;3.55;3.25;;;23.20;69.60;;;;;;873224;161;27463;-77
2023/07/10 02:26:04;;;;;;;4.45;4.08;;;23.10;70.00;;;;;;872990;163;27459;-77
2023/07/10 02:28:31;;;;;;;3.87;3.50;;;23.10;70.20;;;;;;873552;161;27435;-77
2023/07/10 02:30:57;;;;;;;4.35;3.62;;;23.10;70.10;;;;;;873327;161;27891;-78
2023/07/10 02:33:24;;;;;;;4.67;4.22;;;23.10;70.10;;;;;;873961;161;27541;-77
2023/07/10 02:35:50;;;;;;;5.12;4.03;;;23.10;70.10;;;;;;873353;163;27546;-77
2023/07/10 02:38:17;;;;;;;3.83;3.52;;;23.00;70.20;;;;;;873005;162;27427;-74
2023/07/10 02:40:44;;;;;;;4.97;4.22;;;23.00;70.60;;;;;;872866;161;27450;-74
2023/07/10 02:43:10;;;;;;;4.15;3.75;;;23.00;71.00;;;;;;873021;161;27521;-74
2023/07/10 02:45:37;;;;;;;5.00;4.47;;;23.00;71.30;;;;;;874192;161;27446;-74
2023/07/10 02:48:03;;;;;;;6.03;4.10;;;23.00;71.40;;;;;;873375;159;27419;-74
2023/07/10 02:50:30;;;;;;;6.25;3.72;;;23.00;71.60;;;;;;873905;161;27427;-74
2023/07/10 02:52:57;;;;;;;4.42;4.05;;;23.10;71.90;;;;;;873146;162;27443;-74
2023/07/10 02:55:23;;;;;;;4.72;4.03;;;23.10;72.20;;;;;;873892;162;27463;-74
2023/07/10 02:57:50;;;;;;;4.87;4.17;;;23.10;72.50;;;;;;873074;162;27447;-74
2023/07/10 03:00:16;;;;;;;6.85;4.12;;;23.20;73.00;;;;;;877650;161;27411;-74
2023/07/10 03:02:43;;;;;;;4.35;3.85;;;23.20;73.20;;;;;;876741;161;27859;-74
2023/07/10 03:05:10;;;;;;;4.40;4.00;;;23.20;73.30;;;;;;873522;163;27486;-74
2023/07/10 03:07:36;;;;;;;4.67;3.80;;;23.20;73.60;;;;;;873551;163;27442;-74
2023/07/10 03:10:03;;;;;;;4.40;4.00;;;23.20;73.80;;;;;;873145;161;27420;-74
2023/07/10 03:12:29;;;;;;;4.90;3.90;;;23.20;75.10;;;;;;870255;161;27434;-74
2023/07/10 03:14:56;;;;;;;4.78;4.37;;;23.20;74.60;;;;;;876515;160;27425;-74
2023/07/10 03:17:22;;;;;;;4.70;4.30;;;23.20;74.70;;;;;;873977;163;27515;-74
2023/07/10 03:19:49;;;;;;;6.92;4.30;;;23.20;74.70;;;;;;872949;163;27494;-74
2023/07/10 03:22:16;;;;;;;5.33;4.37;;;23.20;75.20;;;;;;873049;162;27444;-74
2023/07/10 03:24:42;;;;;;;4.25;3.95;;;23.20;75.70;;;;;;873571;161;27416;-74
2023/07/10 03:27:09;;;;;;;4.05;3.65;;;23.10;76.00;;;;;;873456;162;27400;-74
2023/07/10 03:29:36;;;;;;;3.92;3.52;;;23.10;76.20;;;;;;873343;161;27454;-74
2023/07/10 03:32:02;;;;;;;4.20;3.77;;;23.10;76.50;;;;;;873583;163;27443;-74
2023/07/10 03:34:29;;;;;;;3.67;3.37;;;23.10;76.70;;;;;;872723;161;27590;-74
2023/07/10 03:36:55;;;;;;;6.45;4.47;;;23.00;77.10;;;;;;873343;163;27424;-74
2023/07/10 03:39:22;;;;;;;5.35;4.00;;;23.00;77.80;;;;;;873550;161;27411;-74
2023/07/10 03:41:48;;;;;;;4.00;3.62;;;23.00;78.30;;;;;;873942;162;27490;-74
2023/07/10 03:44:15;;;;;;;4.65;4.20;;;23.00;79.20;;;;;;873620;161;27360;-74
2023/07/10 03:46:42;;;;;;;7.75;3.90;;;23.10;79.70;;;;;;873708;162;27485;-74
2023/07/10 03:49:08;;;;;;;5.97;4.25;;;23.10;80.40;;;;;;873379;161;27408;-74
2023/07/10 03:51:35;;;;;;;6.42;4.40;;;23.10;80.90;;;;;;873559;163;27467;-74
2023/07/10 03:54:01;;;;;;;8.30;4.42;;;23.20;81.40;;;;;;873261;161;27456;-74
2023/07/10 03:56:28;;;;;;;6.33;4.55;;;23.20;81.70;;;;;;873627;161;27360;-74
2023/07/10 03:58:54;;;;;;;5.00;3.67;;;23.20;82.00;;;;;;873325;163;27452;-74
2023/07/10 04:01:21;;;;;;;5.15;4.08;;;23.20;82.40;;;;;;873461;162;27447;-74
2023/07/10 04:03:48;;;;;;;5.37;4.08;;;23.20;82.50;;;;;;873555;161;27446;-74
2023/07/10 04:06:14;;;;;;;4.85;4.20;;;23.30;83.00;;;;;;873115;161;27518;-74
2023/07/10 04:08:41;;;;;;;5.40;4.90;;;23.30;83.30;;;;;;873488;161;27440;-74
2023/07/10 04:11:07;;;;;;;5.28;4.67;;;23.30;83.60;;;;;;873470;163;27432;-74
2023/07/10 04:13:34;;;;;;;4.70;4.30;;;23.20;83.60;;;;;;872922;162;27467;-74
2023/07/10 04:16:01;;;;;;;5.08;4.42;;;23.20;83.80;;;;;;873746;163;27447;-74
2023/07/10 04:18:28;;;;;;;7.03;4.45;;;23.20;84.30;;;;;;873472;163;27514;-74
2023/07/10 04:20:54;;;;;;;4.97;4.50;;;23.20;85.30;;;;;;873864;162;27614;-74
2023/07/10 04:23:20;;;;;;;5.30;4.90;;;23.20;86.30;;;;;;872341;161;27460;-74
2023/07/10 04:25:47;;;;;;;5.17;4.67;;;23.10;87.10;;;;;;871951;161;27450;-74
2023/07/10 04:28:14;;;;;;;6.05;4.83;;;23.10;88.20;;;;;;873645;160;27392;-74
2023/07/10 04:30:40;;;;;;;7.62;4.58;;;23.10;88.80;;;;;;874236;161;27523;-74
2023/07/10 04:33:08;;;;;;;5.97;5.42;;;23.10;89.60;;;;;;873814;160;27509;-74
2023/07/10 04:35:33;;;;;;;4.90;4.50;;;23.10;90.20;;;;;;873744;160;27625;-74
2023/07/10 04:38:00;;;;;;;5.70;5.05;;;23.10;90.70;;;;;;873985;163;27464;-74
2023/07/10 04:40:27;;;;;;;5.15;4.65;;;23.10;91.10;;;;;;873907;160;27434;-74
2023/07/10 04:42:54;;;;;;;6.90;4.62;;;23.20;91.30;;;;;;873874;160;27513;-74
2023/07/10 04:45:20;;;;;;;7.67;4.55;;;23.20;91.70;;;;;;874580;160;27431;-74
2023/07/10 04:47:46;;;;;;;6.03;5.33;;;23.30;92.10;;;;;;874184;163;27449;-74
2023/07/10 04:50:13;;;;;;;6.03;5.42;;;23.30;92.20;;;;;;874655;163;27423;-74
2023/07/10 04:52:39;;;;;;;7.60;5.25;;;23.40;92.40;;;;;;874522;163;27412;-74
2023/07/10 04:55:07;;;;;;;7.92;5.30;;;23.50;92.40;;;;;;874013;160;27437;-74
2023/07/10 04:57:33;;;;;;;5.53;5.03;;;23.50;92.50;;;;;;874295;161;27538;-74
2023/07/10 04:59:59;;;;;;;6.30;5.10;;;23.60;92.80;;;;;;874329;160;27568;-74
2023/07/10 05:02:26;;;;;;;5.47;5.05;;;23.70;93.00;;;;;;874530;161;27381;-74
2023/07/10 05:04:52;;;;;;;6.30;5.37;;;23.90;92.80;;;;;;874645;161;27442;-74
2023/07/10 05:07:19;;;;;;;5.35;4.80;;;24.00;92.60;;;;;;874702;163;27435;-74
2023/07/10 05:09:46;;;;;;;6.95;5.10;;;24.10;92.50;;;;;;874344;163;27463;-74
2023/07/10 05:12:12;;;;;;;7.17;5.15;;;24.10;92.10;;;;;;874509;163;27412;-74
2023/07/10 05:14:39;;;;;;;6.50;5.10;;;24.20;92.10;;;;;;873880;160;27478;-74
2023/07/10 05:17:05;;;;;;;4.78;4.37;;;24.30;92.10;;;;;;874139;163;27530;-74
2023/07/10 05:19:33;;;;;;;5.65;4.80;;;24.40;92.80;;;;;;874322;161;27542;-74
2023/07/10 05:21:59;;;;;;;5.97;5.37;;;24.50;94.40;;;;;;873283;161;27605;-74
2023/07/10 05:24:25;;;;;;;5.95;5.35;;;24.70;95.60;;;;;;873580;161;27404;-74
2023/07/10 05:26:52;;;;;;;6.72;4.87;;;25.10;96.70;;;;;;872999;161;27409;-74
2023/07/10 05:29:18;;;;;;;6.30;4.95;;;25.60;97.20;;;;;;873443;161;27431;-74
2023/07/10 05:31:45;;;;;;;5.80;5.20;;;26.10;97.10;;;;;;872708;161;27444;-74
2023/07/10 05:34:12;;;;;;;7.17;4.90;;;26.70;96.10;;;;;;873458;161;27460;-74
2023/07/10 05:36:38;;;;;;;6.12;5.05;;;27.40;96.00;;;;;;873748;163;27488;-74
2023/07/10 05:39:05;;;;;;;5.53;5.03;;;28.00;94.90;;;;;;873543;161;27413;-74
2023/07/10 05:41:33;;;;;;;6.03;4.65;;;28.60;93.40;;;;;;873035;161;27445;-74
2023/07/10 05:43:58;;;;;;;5.85;4.70;;;29.30;91.30;;;;;;873039;161;27455;-74
2023/07/10 05:46:24;;;;;;;5.25;4.75;;;30.00;88.40;;;;;;873852;162;27434;-74
2023/07/10 05:48:52;;;;;;;5.47;4.47;;;30.60;83.90;;;;;;873279;163;27429;-74
2023/07/10 05:51:18;;;;;;;5.70;5.20;;;31.20;81.20;;;;;;873416;161;27432;-74
2023/07/10 05:53:44;;;;;;;6.08;5.47;;;31.70;77.70;;;;;;872794;161;27440;-74
2023/07/10 05:56:11;;;;;;;7.17;5.28;;;32.30;74.10;;;;;;873331;161;27792;-74
2023/07/10 05:58:37;;;;;;;5.62;5.12;;;32.70;72.30;;;;;;872743;161;27480;-74
2023/07/10 06:01:04;;;;;;;5.75;5.03;;;33.10;70.30;;;;;;873637;163;27777;-74
2023/07/10 06:03:31;;;;;;;5.95;5.40;;;33.50;68.80;;;;;;873747;163;27440;-74
2023/07/10 06:05:58;;;;;;;7.60;5.83;;;33.80;67.20;;;;;;873040;163;27550;-74
2023/07/10 06:08:24;;;;;;;6.40;5.80;;;34.20;66.20;;;;;;872741;161;26404;-74
2023/07/10 06:10:50;;;;;;;5.97;5.37;;;34.50;65.10;;;;;;872637;161;27445;-74
2023/07/10 06:13:17;;;;;;;6.33;5.83;;;34.80;63.80;;;;;;873395;161;27518;-74
2023/07/10 06:15:44;;;;;;;7.55;5.58;;;35.10;62.60;;;;;;873388;163;26361;-75
2023/07/10 06:18:10;;;;;;;6.90;6.08;;;35.40;61.60;;;;;;873391;161;27483;-75
2023/07/10 06:20:37;;;;;;;7.97;5.87;;;35.60;60.80;;;;;;872703;161;26452;-75
2023/07/10 06:23:03;;;;;;;6.40;5.90;;;35.90;60.20;;;;;;873269;161;26377;-75
2023/07/10 06:25:30;;;;;;;6.62;6.03;;;36.20;59.90;;;;;;872578;161;26529;-75
2023/07/10 06:27:57;;;;;;;6.30;5.75;;;36.40;59.40;;;;;;872845;161;26366;-75
2023/07/10 06:30:23;;;;;;;6.37;5.78;;;36.70;58.60;;;;;;874869;162;27457;-75
2023/07/10 06:32:50;;;;;;;6.85;6.15;;;37.00;58.30;;;;;;874958;160;26400;-79
2023/07/10 06:35:16;;;;;;;6.53;5.92;;;37.30;57.90;;;;;;873832;160;26459;-74
2023/07/10 06:37:43;;;;;;;6.17;5.47;;;37.60;57.00;;;;;;874059;160;26436;-74
2023/07/10 06:40:09;;;;;;;6.47;5.92;;;37.90;56.10;;;;;;873415;161;26351;-74
2023/07/10 06:42:36;;;;;;;6.45;5.80;;;38.20;55.20;;;;;;873965;160;26452;-74
2023/07/10 06:45:03;;;;;;;6.45;5.85;;;38.40;54.40;;;;;;874298;160;26414;-74
2023/07/10 06:47:32;;;;;;;6.12;5.62;;;38.60;54.00;;;;;;874297;160;27436;-74
2023/07/10 06:50:01;;;;;;;6.42;5.83;;;38.70;53.50;;;;;;874673;162;26347;-74
2023/07/10 06:52:28;;;;;;;5.53;5.08;;;38.90;52.90;;;;;;874979;163;26322;-74
2023/07/10 06:54:55;;;;;;;7.62;5.28;;;39.00;52.80;;;;;;874185;160;26520;-74
2023/07/10 06:57:21;;;;;;;5.70;5.10;;;39.20;52.40;;;;;;874198;160;26377;-74
2023/07/10 06:59:48;;;;;;;6.03;5.08;;;39.40;52.00;;;;;;874896;159;26305;-74
2023/07/10 07:02:14;;;;;;;6.62;5.20;;;39.60;51.60;;;;;;874218;162;26452;-74
2023/07/10 07:04:41;;;;;;;5.47;4.97;;;39.80;51.10;;;;;;874374;161;26345;-74
2023/07/10 07:07:08;;;;;;;5.97;5.15;;;40.00;50.80;;;;;;874492;162;26362;-74
2023/07/10 07:09:34;;;;;;;5.45;4.95;;;40.30;50.50;;;;;;874521;160;26396;-74
2023/07/10 07:12:01;;;;;;;6.78;6.03;;;40.60;50.30;;;;;;874249;161;26269;-74
2023/07/10 07:14:27;;;;;;;6.78;6.10;;;40.90;49.60;;;;;;874174;161;26322;-74
2023/07/10 07:16:54;;;;;;;6.25;5.75;;;41.10;49.00;;;;;;874641;162;26326;-74
2023/07/10 07:19:20;;;;;;;6.30;5.65;;;41.30;48.50;;;;;;875077;163;26350;-74
2023/07/10 07:21:47;;;;;;;5.67;5.15;;;41.50;48.20;;;;;;874640;162;26271;-73
2023/07/10 07:24:14;;;;;;;5.80;5.25;;;41.60;48.00;;;;;;872862;161;27848;-74
2023/07/10 07:26:40;;;;;;;5.50;4.92;;;41.90;47.90;;;;;;872410;161;26437;-74
2023/07/10 07:29:07;;;;;;;4.62;4.25;;;42.10;47.20;;;;;;873138;161;26346;-74
2023/07/10 07:31:33;;;;;;;5.47;4.97;;;42.30;46.30;;;;;;873117;161;27047;-74
2023/07/10 07:34:00;;;;;;;5.40;4.90;;;42.50;45.50;;;;;;874000;161;26784;-73
2023/07/10 07:36:32;;;;;;;6.03;4.78;;;42.50;44.60;;;;;;873409;161;26424;-74
2023/07/10 07:38:53;;;;;;;4.62;4.30;;;42.50;44.40;;;;;;872484;161;26394;-74
2023/07/10 07:41:20;;;;;;;4.78;4.10;;;42.50;44.40;;;;;;873442;161;26340;-74
2023/07/10 07:43:46;;;;;;;5.00;4.58;;;42.40;43.90;;;;;;872950;161;26420;-74
2023/07/10 07:46:14;;;;;;;6.30;5.78;;;42.30;43.60;;;;;;873022;163;26413;-74
2023/07/10 07:48:40;;;;;;;6.87;5.97;;;42.20;43.00;;;;;;873951;161;26417;-74
2023/07/10 07:51:07;;;;;;;7.28;6.60;;;42.00;42.60;;;;;;873532;163;27465;-74
2023/07/10 07:53:33;;;;;;;6.37;5.53;;;41.80;42.60;;;;;;873806;161;26310;-74
2023/07/10 07:55:59;;;;;;;7.33;6.62;;;41.60;43.20;;;;;;872848;161;26396;-74
2023/07/10 07:58:27;;;;;;;9.80;6.95;;;41.60;43.60;;;;;;873549;163;26259;-74
2023/07/10 08:00:52;;;;;;;7.60;7.00;;;41.50;43.20;;;;;;873676;162;26460;-74
2023/07/10 08:03:19;;;;;;;7.15;6.55;;;41.50;43.00;;;;;;873315;161;26358;-72
2023/07/10 08:05:46;;;;;;;7.90;7.30;;;41.40;43.10;;;;;;872623;161;26408;-73
2023/07/10 08:08:12;;;;;;;8.70;8.00;;;41.40;43.00;;;;;;873549;163;26330;-73
2023/07/10 08:10:42;;;;;;;8.30;7.60;;;41.30;42.60;;;;;;873309;163;26404;-73
2023/07/10 08:13:08;;;;;;;8.40;7.67;;;41.20;42.60;;;;;;872691;161;26346;-71
2023/07/10 08:15:35;;;;;;;8.95;8.25;;;40.90;42.50;;;;;;872919;161;26399;-71
2023/07/10 08:18:01;;;;;;;8.33;7.62;;;40.80;42.70;;;;;;872595;161;26310;-71
2023/07/10 08:20:31;;;;;;;9.33;8.25;;;40.80;43.00;;;;;;873353;163;26405;-71
2023/07/10 08:22:57;;;;;;;6.97;6.47;;;40.90;43.30;;;;;;874648;161;28217;-71
2023/07/10 08:25:24;;;;;;;8.13;7.37;;;41.10;43.80;;;;;;874242;160;26429;-71
2023/07/10 08:27:51;;;;;;;8.45;7.75;;;41.40;44.40;;;;;;874052;160;26337;-72
2023/07/10 08:30:17;;;;;;;8.98;8.10;;;41.90;43.50;;;;;;874827;160;26342;-72
2023/07/10 08:32:44;;;;;;;8.15;7.30;;;42.30;42.90;;;;;;874534;163;26449;-72
2023/07/10 08:35:10;;;;;;;8.58;7.83;;;42.70;42.20;;;;;;874162;160;26416;-72
2023/07/10 08:37:37;;;;;;;8.00;7.30;;;43.10;41.60;;;;;;873809;160;26466;-71
2023/07/10 08:40:04;;;;;;;7.75;7.05;;;43.20;41.00;;;;;;873800;160;26324;-72
2023/07/10 08:42:30;;;;;;;7.35;6.85;;;43.40;40.60;;;;;;873919;162;26437;-72
2023/07/10 08:44:57;;;;;;;7.12;6.62;;;43.50;40.60;;;;;;874151;160;26349;-72
2023/07/10 08:47:24;;;;;;;8.20;7.40;;;43.50;39.70;;;;;;874105;160;26408;-71
2023/07/10 08:49:55;;;;;;;7.10;6.50;;;43.60;39.60;;;;;;874349;162;26294;-72
2023/07/10 08:52:46;;;;;;;7.53;6.50;;;43.60;39.60;;;;;;873952;162;26365;-71
2023/07/10 08:55:12;;;;;;;7.35;6.62;;;43.70;39.30;;;;;;873735;160;26361;-72
2023/07/10 08:57:39;;;;;;;6.83;6.22;;;43.90;39.40;;;;;;873363;162;26416;-72
2023/07/10 09:00:09;;;;;;;7.05;6.35;;;44.10;39.40;;;;;;873731;163;26346;-72
2023/07/10 09:02:38;;;;;;;6.25;5.75;;;44.40;39.20;;;;;;874431;162;26322;-70
2023/07/10 09:05:05;;;;;;;7.00;6.40;;;44.80;39.10;;;;;;873933;159;26345;-70
2023/07/10 09:07:31;;;;;;;5.92;5.47;;;45.20;38.50;;;;;;874332;163;26334;-70
2023/07/10 09:09:58;;;;;;;6.05;5.45;;;45.70;38.30;;;;;;874167;163;26323;-70
2023/07/10 09:12:24;;;;;;;6.12;5.55;;;46.10;37.60;;;;;;873918;163;26458;-69
2023/07/10 09:14:57;;;;;;;6.05;5.55;;;46.40;37.30;;;;;;873254;160;26374;-70
2023/07/10 09:17:26;;;;;;;5.75;5.35;;;46.70;36.40;;;;;;873864;162;26447;-70
2023/07/10 09:19:53;;;;;;;6.47;5.97;;;46.80;35.70;;;;;;874145;163;26286;-70
2023/07/10 09:22:19;;;;;;;6.60;6.10;;;46.80;35.60;;;;;;873548;163;26330;-70
2023/07/10 09:24:46;;;;;;;7.03;6.42;;;46.80;35.40;;;;;;874020;162;26392;-69
2023/07/10 09:27:13;;;;;;;6.08;5.65;;;46.80;34.90;;;;;;874048;160;26346;-69
2023/07/10 09:29:39;;;;;;;6.87;6.28;;;46.80;34.70;;;;;;873923;160;26411;-70
2023/07/10 09:32:15;;;;;;;8.95;5.80;;;46.70;34.30;;;;;;873644;162;26446;-70
2023/07/10 09:34:53;;;;;;;7.80;6.10;;;46.50;34.20;;;;;;873581;161;26548;-69
2023/07/10 09:37:20;;;;;;;6.37;5.85;;;46.20;34.40;;;;;;873146;163;26322;-70
2023/07/10 09:39:46;;;;;;;6.95;5.83;;;46.00;34.30;;;;;;873411;160;26467;-69
2023/07/10 09:42:18;;;;;;;6.55;5.97;;;45.80;34.60;;;;;;874080;163;26357;-69
2023/07/10 09:44:51;;;;;;;5.95;5.45;;;45.80;34.90;;;;;;873856;161;26376;-69
2023/07/10 09:47:17;;;;;;;6.40;5.78;;;45.70;35.00;;;;;;874319;162;26358;-69
2023/07/10 09:49:53;;;;;;;6.15;5.65;;;45.60;34.80;;;;;;874801;160;26435;-69
2023/07/10 09:52:25;;;;;;;6.12;5.62;;;45.50;34.60;;;;;;873941;160;26349;-69
2023/07/10 09:55:00;;;;;;;5.92;5.53;;;45.30;34.30;;;;;;873777;160;26374;-69
2023/07/10 09:57:27;;;;;;;5.95;5.45;;;45.00;34.30;;;;;;873652;162;26341;-69
2023/07/10 09:59:56;;;;;;;6.25;5.75;;;44.70;34.70;;;;;;874021;162;26813;-70
2023/07/10 10:02:26;;;;;;;6.50;6.00;;;44.30;34.80;;;;;;873670;160;26370;-69
2023/07/10 10:04:52;;;;;;;7.20;6.28;;;44.00;34.90;;;;;;872892;160;26287;-71
2023/07/10 10:07:21;;;;;;;6.42;5.85;;;43.70;35.10;;;;;;873963;161;26346;-70
2023/07/10 10:09:45;;;;;;;6.20;5.70;;;43.40;35.50;;;;;;873958;162;26499;-70
2023/07/10 10:12:24;;;;;;;5.80;5.35;;;43.20;35.90;;;;;;874114;161;26330;-70
2023/07/10 10:14:53;;;;;;;5.72;5.25;;;42.90;35.90;;;;;;873083;160;26511;-70
2023/07/10 10:17:19;;;;;;;5.60;5.20;;;42.80;35.60;;;;;;872614;163;26365;-70
2023/07/10 10:19:46;;;;;;;5.85;5.25;;;42.70;35.60;;;;;;873589;160;26373;-70
2023/07/10 10:22:13;;;;;;;6.53;5.55;;;42.50;35.30;;;;;;873289;160;26310;-71
2023/07/10 10:24:39;;;;;;;6.45;5.85;;;42.20;35.30;;;;;;873481;160;26389;-70
2023/07/10 10:27:14;;;;;;;6.50;6.00;;;41.90;35.90;;;;;;873221;161;26321;-71
2023/07/10 10:29:41;;;;;;;6.58;6.08;;;41.60;35.20;;;;;;873116;161;26353;-71
2023/07/10 10:32:25;;;;;;;7.40;6.15;;;41.10;35.50;;;;;;872061;161;27532;-70
2023/07/10 10:34:58;;;;;;;5.53;5.03;;;40.60;35.80;;;;;;871493;161;26567;-70
2023/07/10 10:37:33;;;;;;;5.97;5.33;;;40.20;36.20;;;;;;871904;161;26403;-70
2023/07/10 10:40:00;;;;;;;5.65;5.15;;;39.70;36.80;;;;;;872023;162;26330;-70
2023/07/10 10:42:33;;;;;;;5.75;5.10;;;39.30;37.30;;;;;;871804;161;26355;-70
2023/07/10 10:45:02;;;;;;;6.05;5.55;;;39.00;37.30;;;;;;872949;161;27495;-70
2023/07/10 10:47:44;;;;;;;5.85;5.25;;;38.70;37.80;;;;;;863293;161;26463;-70
2023/07/10 10:50:25;;;;;;;5.25;4.85;;;38.60;38.00;;;;;;873658;161;27453;-70
2023/07/10 10:53:22;;;;;;;5.47;4.97;;;38.40;38.30;;;;;;872891;163;26357;-70
2023/07/10 10:56:23;;;;;;;5.53;5.12;;;38.40;38.20;;;;;;872319;162;26295;-70
2023/07/10 10:58:49;;;;;;;5.37;4.97;;;38.30;38.80;;;;;;872909;161;26352;-70
2023/07/10 11:01:21;;;;;;;4.97;4.47;;;38.30;38.90;;;;;;872740;162;26255;-70
2023/07/10 11:03:48;;;;;;;4.45;4.10;;;38.40;38.70;;;;;;873445;161;26529;-70
2023/07/10 11:06:26;;;;;;;4.65;4.30;;;38.40;38.60;;;;;;872943;162;26331;-70
2023/07/10 11:08:53;;;;;;;4.62;4.22;;;38.50;38.80;;;;;;873532;162;26423;-70
2023/07/10 11:11:19;;;;;;;4.35;4.03;;;38.70;38.60;;;;;;873407;162;26251;-71
2023/07/10 11:13:46;;;;;;;5.35;4.55;;;38.70;38.20;;;;;;873028;161;26464;-70
2023/07/10 11:16:13;;;;;;;5.00;4.60;;;38.60;38.00;;;;;;873431;161;26353;-70
2023/07/10 11:18:39;;;;;;;4.67;4.20;;;38.40;37.80;;;;;;873271;163;27518;-70
2023/07/10 11:21:06;;;;;;;4.25;3.90;;;38.20;38.20;;;;;;873041;162;26284;-70
2023/07/10 11:23:41;;;;;;;4.78;4.37;;;38.10;38.40;;;;;;873737;161;26455;-70
2023/07/10 11:26:14;;;;;;;4.75;4.37;;;37.90;38.60;;;;;;873212;161;27601;-70
2023/07/10 11:28:55;;;;;;;4.55;4.20;;;37.80;38.50;;;;;;872083;161;26423;-70
2023/07/10 11:31:31;;;;;;;4.45;4.03;;;37.70;38.90;;;;;;872262;161;26324;-70
2023/07/10 11:34:07;;;;;;;4.40;3.98;;;37.70;39.00;;;;;;873094;161;27523;-70
2023/07/10 11:36:39;;;;;;;4.80;4.40;;;37.70;39.00;;;;;;872799;160;27526;-70
2023/07/10 11:39:06;;;;;;;4.60;4.20;;;37.70;39.10;;;;;;872187;161;26340;-70
2023/07/10 11:41:35;;;;;;;4.08;3.77;;;37.70;39.40;;;;;;872511;161;26808;-70
2023/07/10 11:44:11;;;;;;;5.00;4.55;;;37.70;39.50;;;;;;872136;161;26306;-70
2023/07/10 11:46:38;;;;;;;4.40;4.00;;;37.70;39.40;;;;;;873545;161;26361;-70
2023/07/10 11:49:10;;;;;;;5.10;4.30;;;37.70;39.30;;;;;;871856;161;26361;-70
2023/07/10 11:51:37;;;;;;;4.35;3.95;;;37.80;39.20;;;;;;873358;163;26420;-70
2023/07/10 11:54:13;;;;;;;5.10;4.22;;;37.90;39.20;;;;;;873359;161;26342;-70
2023/07/10 11:56:39;;;;;;;5.17;4.78;;;37.90;39.00;;;;;;873775;162;26318;-71
2023/07/10 11:59:15;;;;;;;4.97;4.25;;;37.90;38.80;;;;;;871832;163;26357;-71
2023/07/10 12:01:41;;;;;;;4.47;4.08;;;37.90;38.90;;;;;;872529;161;26327;-72
2023/07/10 12:04:14;;;;;;;4.75;4.35;;;37.70;38.60;;;;;;873153;161;27502;-72
2023/07/10 12:06:40;;;;;;;4.95;4.45;;;37.60;38.80;;;;;;873206;163;27455;-72
2023/07/10 12:09:07;;;;;;;4.75;4.35;;;37.40;39.00;;;;;;872353;163;26464;-71
2023/07/10 12:11:33;;;;;;;5.67;4.10;;;37.30;39.00;;;;;;873234;163;27454;-71
2023/07/10 12:14:12;;;;;;;4.87;4.45;;;37.10;39.20;;;;;;872716;163;27488;-71
2023/07/10 12:16:38;;;;;;;5.58;4.60;;;36.90;39.20;;;;;;873414;162;27474;-71
2023/07/10 12:19:14;;;;;;;5.15;4.50;;;36.80;39.10;;;;;;872741;163;27429;-71
2023/07/10 12:21:41;;;;;;;4.70;4.30;;;36.70;39.20;;;;;;873619;162;27561;-71
2023/07/10 12:24:13;;;;;;;5.78;4.03;;;36.60;39.30;;;;;;873802;161;26322;-71
2023/07/10 12:26:39;;;;;;;5.10;4.60;;;36.40;39.50;;;;;;873656;162;27496;-71
2023/07/10 12:29:06;;;;;;;5.42;4.92;;;36.30;39.80;;;;;;874534;163;26440;-71
2023/07/10 12:31:32;;;;;;;4.72;4.33;;;36.20;39.90;;;;;;874703;162;27373;-71
2023/07/10 12:33:59;;;;;;;5.37;4.90;;;36.20;40.00;;;;;;874653;160;27472;-71
2023/07/10 12:36:26;;;;;;;5.42;4.65;;;36.10;40.10;;;;;;873925;162;27549;-71
2023/07/10 12:38:52;;;;;;;4.65;4.30;;;36.00;40.00;;;;;;874126;162;27432;-71
2023/07/10 12:41:19;;;;;;;4.47;4.05;;;36.00;40.00;;;;;;873436;160;27456;-71
2023/07/10 12:43:48;;;;;;;5.55;4.72;;;35.90;40.10;;;;;;874219;161;26699;-71
2023/07/10 12:46:15;;;;;;;5.33;4.85;;;35.90;40.00;;;;;;873890;163;27468;-71
2023/07/10 12:48:41;;;;;;;4.90;4.47;;;35.80;40.20;;;;;;874341;162;28097;-72
2023/07/10 12:51:08;;;;;;;5.20;4.80;;;35.70;40.10;;;;;;874511;163;27424;-71